createdAt,value
2017-10-18T00:02:15.548Z,23.53
2017-10-18T00:04:43.005Z,23.07
2017-10-18T00:07:10.525Z,23.20
2017-10-18T00:09:37.976Z,22.87
2017-10-18T00:12:05.452Z,27.53
2017-10-18T00:14:32.916Z,46.27
2017-10-18T00:17:00.400Z,53.20
2017-10-18T00:19:27.879Z,39.23
2017-10-18T00:21:55.442Z,40.80
2017-10-18T00:24:22.886Z,39.20
2017-10-18T00:26:50.365Z,45.10
2017-10-18T00:29:17.821Z,126.53
2017-10-18T00:31:45.291Z,45.10
2017-10-18T00:34:12.768Z,38.03
2017-10-18T00:36:40.300Z,51.03
2017-10-18T00:39:07.850Z,51.27
2017-10-18T00:41:35.328Z,41.00
2017-10-18T00:44:02.858Z,38.93
2017-10-18T00:46:30.427Z,37.83
2017-10-18T00:48:57.884Z,59.47
2017-10-18T00:51:25.355Z,58.93
2017-10-18T00:53:52.824Z,63.13
2017-10-18T00:56:20.340Z,70.27
2017-10-18T00:58:47.812Z,111.23
2017-10-18T01:01:15.280Z,74.60
2017-10-18T01:03:42.740Z,114.20
2017-10-18T01:06:10.284Z,61.43
2017-10-18T01:08:37.743Z,76.43
2017-10-18T01:11:05.308Z,65.27
2017-10-18T01:13:32.758Z,58.73
2017-10-18T01:16:00.204Z,116.10
2017-10-18T01:18:27.699Z,50.57
2017-10-18T01:20:55.227Z,58.50
2017-10-18T01:23:22.699Z,59.57
2017-10-18T01:25:50.145Z,52.10
2017-10-18T01:28:17.609Z,73.20
2017-10-18T01:30:45.071Z,43.03
2017-10-18T01:33:12.552Z,43.03
2017-10-18T01:35:39.998Z,36.07
2017-10-18T01:38:07.475Z,61.67
2017-10-18T01:40:34.938Z,35.47
2017-10-18T01:43:02.432Z,27.00
2017-10-18T01:45:30.002Z,42.27
2017-10-18T01:47:57.470Z,28.50
2017-10-18T01:50:24.936Z,47.07
2017-10-18T01:52:52.411Z,42.90
2017-10-18T01:55:19.926Z,38.50
2017-10-18T01:57:47.413Z,49.50
2017-10-18T02:00:14.931Z,89.50
2017-10-18T02:02:42.515Z,80.33
2017-10-18T02:05:09.963Z,52.40
2017-10-18T02:07:37.535Z,70.50
2017-10-18T02:10:05.077Z,49.50
2017-10-18T02:12:32.541Z,66.40
2017-10-18T02:14:59.999Z,46.20
2017-10-18T02:17:27.548Z,47.57
2017-10-18T02:19:55.016Z,138.73
2017-10-18T02:22:22.560Z,119.03
2017-10-18T02:24:50.006Z,89.87
2017-10-18T02:27:17.500Z,64.67
2017-10-18T02:29:44.958Z,74.53
2017-10-18T02:32:12.478Z,95.63
2017-10-18T02:34:39.949Z,75.37
2017-10-18T02:37:07.452Z,57.90
2017-10-18T02:39:34.909Z,61.67
2017-10-18T02:42:02.387Z,45.07
2017-10-18T02:44:29.853Z,58.73
2017-10-18T02:46:57.331Z,37.57
2017-10-18T02:49:24.808Z,62.03
2017-10-18T02:51:52.254Z,61.07
2017-10-18T02:54:19.734Z,46.60
2017-10-18T02:56:47.208Z,62.27
2017-10-18T02:59:14.680Z,77.53
2017-10-18T03:01:42.147Z,43.37
2017-10-18T03:04:09.738Z,32.80
2017-10-18T03:06:37.182Z,52.57
2017-10-18T03:09:04.661Z,40.40
2017-10-18T03:11:32.132Z,40.83
2017-10-18T03:13:59.607Z,32.03
2017-10-18T03:16:27.055Z,40.30
2017-10-18T03:18:54.528Z,51.10
2017-10-18T03:21:21.990Z,34.77
2017-10-18T03:23:49.456Z,60.77
2017-10-18T03:26:16.915Z,37.10
2017-10-18T03:28:44.382Z,28.63
2017-10-18T03:31:11.857Z,61.97
2017-10-18T03:33:39.336Z,88.83
2017-10-18T03:36:06.782Z,74.37
2017-10-18T03:38:34.251Z,42.63
2017-10-18T03:41:02.264Z,41.13
2017-10-18T03:43:29.747Z,73.43
2017-10-18T03:45:57.213Z,82.83
2017-10-18T03:48:24.686Z,22.10
2017-10-18T03:50:52.131Z,52.80
2017-10-18T03:53:19.622Z,59.53
2017-10-18T03:55:47.130Z,27.93
2017-10-18T03:58:14.692Z,27.90
2017-10-18T04:00:42.179Z,32.93
2017-10-18T04:03:09.709Z,23.00
2017-10-18T04:05:37.191Z,25.50
2017-10-18T04:08:04.637Z,33.60
2017-10-18T04:10:32.175Z,26.60
2017-10-18T04:12:59.632Z,34.37
2017-10-18T04:15:27.107Z,25.17
2017-10-18T04:17:54.554Z,26.03
2017-10-18T04:20:22.113Z,30.40
2017-10-18T04:22:49.662Z,32.20
2017-10-18T04:25:17.135Z,24.53
2017-10-18T04:27:44.598Z,15.97
2017-10-18T04:30:12.071Z,14.63
2017-10-18T04:32:39.536Z,24.27
2017-10-18T04:35:07.023Z,32.27
2017-10-18T04:37:34.483Z,23.53
2017-10-18T04:40:01.964Z,36.37
2017-10-18T04:42:29.413Z,18.70
2017-10-18T04:44:56.890Z,23.00
2017-10-18T04:47:24.342Z,29.53
2017-10-18T04:49:51.809Z,29.90
2017-10-18T04:52:19.263Z,28.30
2017-10-18T04:54:46.739Z,23.83
2017-10-18T04:57:14.194Z,38.70
2017-10-18T04:59:41.675Z,66.13
2017-10-18T05:02:09.180Z,20.27
2017-10-18T05:04:36.660Z,52.17
2017-10-18T05:07:04.111Z,62.23
2017-10-18T05:09:31.586Z,73.50
2017-10-18T05:11:59.032Z,95.77
2017-10-18T05:14:26.512Z,42.50
2017-10-18T05:16:53.987Z,31.27
2017-10-18T05:19:21.468Z,29.57
2017-10-18T05:21:48.983Z,60.20
2017-10-18T05:24:17.402Z,29.47
2017-10-18T05:26:44.854Z,39.33
2017-10-18T05:29:12.324Z,45.47
2017-10-18T05:31:39.782Z,36.77
2017-10-18T05:34:07.235Z,30.93
2017-10-18T05:36:34.744Z,44.63
2017-10-18T05:39:02.227Z,74.37
2017-10-18T05:41:29.703Z,33.67
2017-10-18T05:43:57.177Z,45.50
2017-10-18T05:46:24.675Z,52.67
2017-10-18T05:48:52.174Z,107.13
2017-10-18T05:51:19.637Z,28.37
2017-10-18T05:53:47.077Z,51.17
2017-10-18T05:56:14.567Z,56.37
2017-10-18T05:58:42.028Z,67.37
2017-10-18T06:01:09.505Z,86.87
2017-10-18T06:03:36.965Z,43.43
2017-10-18T06:06:04.439Z,93.20
2017-10-18T06:08:31.900Z,111.83
2017-10-18T06:10:59.491Z,83.33
2017-10-18T06:13:26.975Z,166.50
2017-10-18T06:15:54.602Z,147.60
2017-10-18T06:18:22.290Z,70.57
2017-10-18T06:20:50.197Z,155.17
2017-10-18T06:23:17.862Z,33.33
2017-10-18T06:25:45.564Z,42.57
2017-10-18T06:28:14.081Z,81.30
2017-10-18T06:30:41.731Z,91.90
2017-10-18T06:33:09.379Z,37.80
2017-10-18T06:35:37.177Z,39.63
2017-10-18T06:38:04.728Z,69.07
2017-10-18T06:40:32.388Z,14.40
2017-10-18T06:43:01.216Z,23.53
2017-10-18T06:45:29.363Z,47.90
2017-10-18T06:47:57.125Z,45.77
2017-10-18T06:50:24.783Z,62.57
2017-10-18T06:52:52.551Z,59.90
2017-10-18T06:55:20.152Z,32.93
2017-10-18T06:57:48.386Z,28.87
2017-10-18T07:00:16.046Z,20.03
2017-10-18T07:02:43.686Z,27.97
2017-10-18T07:05:11.280Z,16.50
2017-10-18T07:07:39.134Z,36.57
2017-10-18T07:10:06.774Z,19.10
2017-10-18T07:12:34.661Z,23.33
2017-10-18T07:15:02.289Z,36.67
2017-10-18T07:17:30.188Z,24.07
2017-10-18T07:19:57.964Z,21.63
2017-10-18T07:22:25.547Z,15.90
2017-10-18T07:24:53.125Z,23.23
2017-10-18T07:27:24.727Z,16.50
2017-10-18T07:29:52.254Z,19.77
2017-10-18T07:32:20.154Z,33.33
2017-10-18T07:34:47.771Z,26.03
2017-10-18T07:37:16.087Z,19.63
2017-10-18T07:42:22.286Z,22.00
2017-10-18T07:44:50.257Z,13.80
2017-10-18T07:47:17.938Z,28.57
2017-10-18T07:49:45.611Z,16.67
2017-10-18T07:52:13.154Z,24.13
2017-10-18T07:54:40.639Z,28.50
2017-10-18T07:57:08.248Z,19.80
2017-10-18T07:59:35.789Z,23.40
2017-10-18T08:02:03.554Z,22.27
2017-10-18T08:04:31.025Z,18.50
2017-10-18T08:06:58.612Z,21.27
2017-10-18T08:09:26.127Z,17.20
2017-10-18T08:11:53.751Z,16.60
2017-10-18T08:14:21.299Z,22.80
2017-10-18T08:16:48.870Z,44.53
2017-10-18T08:19:16.372Z,20.73
2017-10-18T08:21:43.909Z,39.23
2017-10-18T08:24:11.479Z,34.90
2017-10-18T08:26:39.021Z,24.20
2017-10-18T08:29:06.477Z,25.30
2017-10-18T08:31:33.984Z,27.27
2017-10-18T08:34:01.471Z,18.97
2017-10-18T08:36:29.271Z,35.83
2017-10-18T08:38:57.131Z,26.17
2017-10-18T08:41:24.895Z,24.23
2017-10-18T08:43:52.772Z,19.03
2017-10-18T08:46:20.533Z,24.23
2017-10-18T08:48:48.401Z,19.07
2017-10-18T08:51:16.164Z,20.97
2017-10-18T08:53:44.031Z,20.70
2017-10-18T08:56:11.897Z,16.80
2017-10-18T08:58:39.660Z,24.90
2017-10-18T09:01:07.429Z,19.37
2017-10-18T09:03:35.886Z,16.50
2017-10-18T09:06:03.771Z,21.87
2017-10-18T09:08:31.607Z,18.57
2017-10-18T09:10:59.296Z,23.33
2017-10-18T09:13:27.164Z,25.17
2017-10-18T09:15:54.891Z,38.43
2017-10-18T09:18:22.692Z,42.57
2017-10-18T09:20:50.309Z,27.47
2017-10-18T09:23:17.944Z,80.70
2017-10-18T09:25:45.563Z,39.17
2017-10-18T09:28:13.222Z,65.57
2017-10-18T09:30:40.999Z,26.23
2017-10-18T09:33:08.761Z,29.53
2017-10-18T09:35:36.375Z,21.90
2017-10-18T09:38:04.040Z,25.83
2017-10-18T09:40:31.571Z,30.73
2017-10-18T09:43:02.376Z,24.77
2017-10-18T09:45:29.896Z,23.77
2017-10-18T09:47:57.371Z,20.50
2017-10-18T09:50:24.826Z,20.97
2017-10-18T09:52:52.370Z,30.63
2017-10-18T09:55:19.844Z,26.60
2017-10-18T09:57:47.335Z,36.37
2017-10-18T10:00:14.853Z,38.20
2017-10-18T10:02:42.307Z,21.40
2017-10-18T10:05:09.791Z,26.63
2017-10-18T10:07:37.293Z,25.10
2017-10-18T10:10:04.773Z,21.83
2017-10-18T10:12:32.217Z,18.73
2017-10-18T10:14:59.723Z,22.20
2017-10-18T10:17:27.210Z,24.77
2017-10-18T10:19:54.688Z,20.60
2017-10-18T10:22:22.151Z,22.63
2017-10-18T10:24:49.619Z,20.57
2017-10-18T10:27:17.156Z,20.17
2017-10-18T10:29:44.633Z,19.43
2017-10-18T10:32:12.083Z,19.50
2017-10-18T10:34:39.634Z,22.70
2017-10-18T10:37:07.115Z,20.07
2017-10-18T10:39:34.572Z,19.40
2017-10-18T10:42:02.052Z,21.10
2017-10-18T10:44:29.546Z,20.33
2017-10-18T10:46:57.039Z,19.27
2017-10-18T10:49:24.512Z,28.73
2017-10-18T10:51:52.011Z,21.97
2017-10-18T10:54:19.523Z,18.63
2017-10-18T10:56:46.994Z,20.60
2017-10-18T10:59:14.503Z,19.80
2017-10-18T11:01:41.995Z,17.87
2017-10-18T11:04:09.441Z,17.60
2017-10-18T11:06:36.969Z,20.93
2017-10-18T11:09:04.529Z,21.27
2017-10-18T11:11:31.997Z,21.30
2017-10-18T11:13:59.470Z,19.20
2017-10-18T11:16:27.000Z,21.90
2017-10-18T11:18:54.475Z,20.70
2017-10-18T11:21:21.932Z,21.53
2017-10-18T11:23:49.457Z,19.40
2017-10-18T11:26:16.916Z,20.03
2017-10-18T11:28:44.403Z,21.03
2017-10-18T11:31:11.854Z,18.83
2017-10-18T11:33:39.351Z,19.50
2017-10-18T11:36:06.806Z,19.00
2017-10-18T11:38:34.292Z,18.20
2017-10-18T11:41:01.779Z,15.90
2017-10-18T11:43:29.279Z,15.67
2017-10-18T11:45:56.733Z,16.10
2017-10-18T11:48:24.232Z,15.77
2017-10-18T11:50:51.717Z,14.90
2017-10-18T11:53:19.205Z,16.20
2017-10-18T11:55:46.650Z,16.10
2017-10-18T11:58:14.123Z,15.30
2017-10-18T12:00:41.584Z,18.20
2017-10-18T12:03:09.106Z,15.20
2017-10-18T12:05:36.586Z,14.60
2017-10-18T12:08:04.098Z,16.63
2017-10-18T12:10:31.662Z,14.70
2017-10-18T12:12:59.149Z,22.37
2017-10-18T12:15:26.623Z,13.17
2017-10-18T12:17:54.074Z,12.83
2017-10-18T12:20:21.595Z,20.57
2017-10-18T12:22:49.044Z,11.83
2017-10-18T12:25:16.559Z,12.77
2017-10-18T12:27:44.053Z,11.57
2017-10-18T12:30:11.627Z,12.10
2017-10-18T12:32:39.113Z,10.77
2017-10-18T12:35:06.657Z,11.00
2017-10-18T12:37:34.224Z,15.40
2017-10-18T12:40:01.700Z,10.37
2017-10-18T12:42:29.155Z,9.60
2017-10-18T12:44:56.632Z,9.70
2017-10-18T12:47:24.091Z,10.17
2017-10-18T12:49:51.564Z,9.43
2017-10-18T12:52:19.010Z,18.73
2017-10-18T12:54:46.473Z,9.67
2017-10-18T12:57:13.926Z,9.67
2017-10-18T12:59:41.392Z,10.13
2017-10-18T13:02:08.846Z,8.67
2017-10-18T13:04:36.332Z,10.40
2017-10-18T13:07:03.784Z,10.53
2017-10-18T13:09:31.259Z,15.27
2017-10-18T13:11:58.704Z,8.50
2017-10-18T13:14:26.295Z,10.63
2017-10-18T13:16:53.759Z,8.37
2017-10-18T13:19:21.252Z,9.30
2017-10-18T13:21:48.720Z,11.07
2017-10-18T13:24:16.208Z,9.77
2017-10-18T13:26:43.665Z,13.53
2017-10-18T13:29:11.133Z,10.10
2017-10-18T13:31:38.610Z,16.33
2017-10-18T13:34:06.075Z,12.37
2017-10-18T13:36:33.709Z,10.40
2017-10-18T13:39:01.165Z,10.27
2017-10-18T13:41:28.625Z,9.83
2017-10-18T13:43:56.139Z,9.37
2017-10-18T13:46:23.612Z,9.83
2017-10-18T13:48:51.151Z,10.87
2017-10-18T13:51:18.624Z,13.80
2017-10-18T13:53:46.086Z,12.53
2017-10-18T13:56:13.574Z,12.73
2017-10-18T13:58:41.031Z,9.87
2017-10-18T14:01:08.529Z,8.43
2017-10-18T14:03:35.987Z,9.70
2017-10-18T14:06:03.494Z,9.03
2017-10-18T14:08:30.951Z,8.67
2017-10-18T14:10:58.442Z,8.10
2017-10-18T14:13:25.915Z,9.40
2017-10-18T14:15:53.380Z,11.47
2017-10-18T14:18:20.929Z,9.87
2017-10-18T14:20:48.385Z,8.27
2017-10-18T14:23:15.847Z,8.30
2017-10-18T14:25:43.298Z,11.93
2017-10-18T14:28:10.764Z,9.87
2017-10-18T14:30:38.316Z,9.07
2017-10-18T14:33:05.794Z,8.90
2017-10-18T14:35:33.331Z,8.47
2017-10-18T14:38:00.827Z,7.77
2017-10-18T14:40:28.272Z,7.60
2017-10-18T14:42:55.786Z,8.77
2017-10-18T14:45:23.274Z,11.13
2017-10-18T14:47:51.073Z,8.47
2017-10-18T14:50:18.940Z,9.20
2017-10-18T14:52:46.810Z,8.97
2017-10-18T14:55:14.554Z,11.87
2017-10-18T14:57:42.049Z,8.50
2017-10-18T15:00:09.676Z,17.87
2017-10-18T15:02:37.509Z,12.43
2017-10-18T15:05:05.054Z,7.70
2017-10-18T15:07:32.504Z,9.93
2017-10-18T15:09:59.971Z,9.27
2017-10-18T15:12:27.406Z,7.63
2017-10-18T15:14:54.979Z,8.60
2017-10-18T15:17:22.456Z,10.77
2017-10-18T15:19:49.915Z,17.33
2017-10-18T15:22:17.376Z,8.17
2017-10-18T15:24:44.850Z,10.30
2017-10-18T15:27:12.302Z,16.33
2017-10-18T15:29:39.808Z,9.50
2017-10-18T15:32:07.254Z,8.67
2017-10-18T15:34:34.794Z,9.00
2017-10-18T15:37:02.248Z,18.30
2017-10-18T15:39:29.695Z,9.17
2017-10-18T15:41:57.151Z,10.50
2017-10-18T15:44:24.664Z,9.03
2017-10-18T15:46:52.134Z,10.60
2017-10-18T15:49:19.581Z,12.00
2017-10-18T15:51:47.053Z,12.73
2017-10-18T15:54:14.530Z,11.93
2017-10-18T15:56:42.053Z,11.63
2017-10-18T15:59:09.510Z,18.13
2017-10-18T16:01:36.983Z,12.60
2017-10-18T16:04:04.448Z,13.10
2017-10-18T16:06:31.977Z,14.27
2017-10-18T16:08:59.417Z,16.13
2017-10-18T16:11:26.911Z,14.80
2017-10-18T16:13:54.441Z,12.77
2017-10-18T16:16:21.923Z,13.10
2017-10-18T16:18:49.391Z,15.50
2017-10-18T16:21:16.875Z,12.60
2017-10-18T16:23:44.321Z,16.40
2017-10-18T16:26:11.838Z,14.70
2017-10-18T16:28:39.286Z,15.33
2017-10-18T16:31:06.861Z,12.63
2017-10-18T16:33:34.316Z,16.70
2017-10-18T16:36:01.806Z,11.53
2017-10-18T16:38:29.263Z,11.77
2017-10-18T16:40:56.737Z,13.23
2017-10-18T16:43:24.212Z,12.70
2017-10-18T16:45:51.707Z,12.30
2017-10-18T16:48:19.158Z,10.30
2017-10-18T16:50:46.622Z,12.50
2017-10-18T16:53:14.074Z,10.73
2017-10-18T16:55:41.558Z,18.63
2017-10-18T16:58:09.075Z,9.37
2017-10-18T17:00:36.537Z,19.43
2017-10-18T17:03:04.100Z,10.60
2017-10-18T17:05:31.586Z,9.83
2017-10-18T17:07:59.034Z,11.17
2017-10-18T17:10:26.484Z,9.57
2017-10-18T17:12:54.020Z,10.63
2017-10-18T17:15:21.499Z,13.30
2017-10-18T17:17:49.028Z,9.47
2017-10-18T17:20:16.470Z,10.37
2017-10-18T17:22:43.974Z,21.80
2017-10-18T17:25:11.423Z,10.00
2017-10-18T17:27:38.899Z,11.77
2017-10-18T17:30:06.426Z,10.27
2017-10-18T17:32:33.907Z,10.60
2017-10-18T17:35:01.350Z,8.37
2017-10-18T17:37:28.852Z,11.93
2017-10-18T17:39:56.296Z,9.23
2017-10-18T17:42:23.761Z,8.67
2017-10-18T17:44:51.216Z,10.03
2017-10-18T17:47:18.691Z,10.20
2017-10-18T17:49:46.180Z,8.43
2017-10-18T17:52:13.637Z,9.10
2017-10-18T17:54:41.112Z,10.03
2017-10-18T17:57:08.587Z,9.83
2017-10-18T17:59:36.065Z,9.77
2017-10-18T18:02:03.529Z,9.47
2017-10-18T18:04:31.006Z,10.40
2017-10-18T18:06:58.581Z,12.93
2017-10-18T18:09:26.034Z,11.40
2017-10-18T18:11:53.503Z,9.43
2017-10-18T18:14:20.946Z,8.60
2017-10-18T18:16:48.434Z,9.47
2017-10-18T18:19:15.974Z,11.13
2017-10-18T18:21:43.456Z,9.50
2017-10-18T18:24:11.030Z,9.33
2017-10-18T18:26:38.548Z,11.07
2017-10-18T18:29:06.006Z,9.33
2017-10-18T18:31:33.548Z,7.57
2017-10-18T18:34:01.113Z,10.00
2017-10-18T18:36:28.672Z,9.40
2017-10-18T18:38:56.274Z,9.87
2017-10-18T18:41:23.722Z,9.67
2017-10-18T18:43:51.203Z,11.43
2017-10-18T18:46:18.664Z,10.37
2017-10-18T18:48:46.147Z,14.43
2017-10-18T18:51:13.622Z,13.33
2017-10-18T18:53:41.414Z,12.37
2017-10-18T18:56:08.873Z,11.80
2017-10-18T18:58:36.351Z,12.33
2017-10-18T19:01:03.806Z,12.33
2017-10-18T19:03:31.288Z,12.73
2017-10-18T19:05:58.752Z,11.70
2017-10-18T19:08:26.236Z,12.17
2017-10-18T19:10:53.687Z,10.83
2017-10-18T19:13:21.157Z,14.20
2017-10-18T19:15:48.618Z,20.67
2017-10-18T19:18:16.143Z,16.00
2017-10-18T19:20:43.704Z,13.07
2017-10-18T19:23:11.194Z,13.17
2017-10-18T19:25:38.646Z,11.17
2017-10-18T19:28:06.117Z,17.53
2017-10-18T19:30:33.573Z,12.67
2017-10-18T19:33:01.072Z,12.73
2017-10-18T19:35:28.538Z,16.73
2017-10-18T19:37:56.027Z,13.60
2017-10-18T19:40:23.561Z,16.40
2017-10-18T19:42:51.060Z,11.37
2017-10-18T19:45:18.516Z,12.87
2017-10-18T19:47:45.995Z,11.53
2017-10-18T19:50:13.489Z,10.40
2017-10-18T19:52:41.147Z,11.33
2017-10-18T19:55:08.632Z,11.13
2017-10-18T19:57:36.094Z,10.00
2017-10-18T20:00:03.563Z,12.97
2017-10-18T20:02:31.074Z,11.57
2017-10-18T20:04:58.537Z,11.33
2017-10-18T20:07:26.082Z,11.83
2017-10-18T20:09:53.699Z,12.20
2017-10-18T20:12:21.141Z,14.10
2017-10-18T20:14:48.616Z,11.93
2017-10-18T20:17:16.066Z,10.63
2017-10-18T20:19:43.589Z,11.20
2017-10-18T20:22:11.042Z,13.73
2017-10-18T20:24:38.600Z,9.93
2017-10-18T20:27:06.056Z,14.30
2017-10-18T20:29:33.540Z,10.87
2017-10-18T20:32:00.982Z,12.33
2017-10-18T20:34:28.471Z,13.50
2017-10-18T20:36:55.919Z,11.30
2017-10-18T20:39:23.440Z,16.93
2017-10-18T20:41:50.896Z,12.80
2017-10-18T20:44:18.509Z,13.40
2017-10-18T20:46:46.021Z,13.03
2017-10-18T20:49:13.486Z,11.80
2017-10-18T20:51:40.939Z,17.23
2017-10-18T20:54:08.447Z,11.40
2017-10-18T20:56:35.898Z,12.23
2017-10-18T20:59:03.508Z,12.80
2017-10-18T21:01:31.066Z,13.67
2017-10-18T21:03:58.553Z,12.27
2017-10-18T21:06:26.079Z,13.87
2017-10-18T21:08:53.611Z,11.93
2017-10-18T21:11:21.073Z,10.97
2017-10-18T21:13:48.557Z,13.90
2017-10-18T21:16:16.039Z,13.53
2017-10-18T21:18:43.485Z,11.33
2017-10-18T21:21:11.016Z,15.63
2017-10-18T21:23:38.477Z,13.07
2017-10-18T21:26:05.972Z,20.93
2017-10-18T21:28:33.451Z,11.30
2017-10-18T21:31:00.935Z,18.93
2017-10-18T21:33:28.388Z,10.50
2017-10-18T21:35:56.738Z,9.97
2017-10-18T21:38:24.182Z,15.03
2017-10-18T21:40:51.651Z,11.70
2017-10-18T21:43:19.409Z,13.90
2017-10-18T21:45:46.924Z,15.07
2017-10-18T21:48:14.402Z,14.23
2017-10-18T21:50:41.940Z,12.90
2017-10-18T21:53:09.473Z,13.47
2017-10-18T21:55:36.944Z,17.90
2017-10-18T21:58:04.405Z,15.90
2017-10-18T22:00:31.889Z,14.07
2017-10-18T22:02:59.344Z,13.43
2017-10-18T22:05:26.845Z,13.10
2017-10-18T22:07:54.301Z,13.80
2017-10-18T22:10:21.770Z,11.83
2017-10-18T22:12:49.243Z,10.47
2017-10-18T22:15:16.727Z,10.57
2017-10-18T22:17:44.212Z,13.30
2017-10-18T22:20:11.683Z,25.10
2017-10-18T22:22:39.132Z,12.43
2017-10-18T22:25:06.635Z,12.73
2017-10-18T22:27:34.191Z,11.80
2017-10-18T22:30:01.748Z,15.27
2017-10-18T22:32:30.807Z,19.67
2017-10-18T22:34:58.300Z,13.60
2017-10-18T22:37:25.759Z,12.33
2017-10-18T22:39:53.208Z,17.60
2017-10-18T22:42:20.680Z,16.73
2017-10-18T22:44:48.122Z,15.90
2017-10-18T22:47:15.582Z,13.63
2017-10-18T22:49:43.136Z,13.63
2017-10-18T22:52:10.692Z,18.73
2017-10-18T22:54:38.134Z,11.17
2017-10-18T22:57:05.594Z,17.37
2017-10-18T22:59:33.067Z,15.60
2017-10-18T23:02:00.543Z,15.27
2017-10-18T23:04:27.996Z,14.37
2017-10-18T23:06:55.526Z,12.97
2017-10-18T23:09:22.977Z,14.07
2017-10-18T23:11:50.467Z,11.80
2017-10-18T23:14:18.008Z,11.80
2017-10-18T23:16:45.474Z,10.70
2017-10-18T23:19:13.010Z,12.10
2017-10-18T23:21:40.495Z,14.30
2017-10-18T23:24:07.976Z,15.00
2017-10-18T23:26:35.491Z,13.87
2017-10-18T23:29:02.935Z,20.00
2017-10-18T23:31:30.404Z,13.53
2017-10-18T23:33:57.842Z,14.50
2017-10-18T23:36:25.444Z,13.87
2017-10-18T23:38:52.885Z,12.37
2017-10-18T23:41:20.359Z,13.90
2017-10-18T23:43:47.830Z,11.83
2017-10-18T23:46:15.300Z,12.93
2017-10-18T23:48:42.773Z,12.93
2017-10-18T23:51:10.252Z,12.43
2017-10-18T23:53:37.698Z,17.10
2017-10-18T23:56:05.180Z,12.70
2017-10-18T23:58:32.634Z,12.77
